Time;durP1;ratioP1;P1;durP2;ratioP2;P2;SDS_P1;SDS_P2;PMS_P1;PMS_P2;Temp;Humidity;BMP_temperature;BMP_pressure;BME280_temperature;BME280_humidity;BME280_pressure;Samples;Min_cycle;Max_cycle;Signal;HPM_P1;HPM_P2
2022/05/18 00:00:34;;;;;;;3.03;2.30;;;;;;;18.60;61.01;100154.00;4347970;32;34196;-69
2022/05/18 00:03:08;;;;;;;3.17;2.53;;;;;;;18.23;61.71;100154.69;4361894;32;33805;-68
2022/05/18 00:05:38;;;;;;;3.12;2.30;;;;;;;18.69;61.42;100156.13;4348112;32;33522;-68
2022/05/18 00:08:08;;;;;;;3.03;2.33;;;;;;;18.51;62.10;100155.78;4357998;32;33831;-68
2022/05/18 00:10:39;;;;;;;3.53;2.10;;;;;;;18.52;62.58;100162.09;4363304;32;35135;-70
2022/05/18 00:13:07;;;;;;;3.28;2.42;;;;;;;18.71;61.78;100162.97;4376564;32;33896;-68
2022/05/18 00:15:35;;;;;;;2.90;2.33;;;;;;;18.37;62.76;100169.37;4359464;32;34211;-68
2022/05/18 00:18:03;;;;;;;3.22;2.47;;;;;;;18.48;62.21;100167.34;4361783;32;33915;-68
2022/05/18 00:20:31;;;;;;;5.10;2.40;;;;;;;18.68;61.77;100158.03;4348111;32;35063;-69
2022/05/18 00:23:01;;;;;;;3.33;2.30;;;;;;;18.22;62.89;100166.78;4361040;32;34027;-69
2022/05/18 00:25:31;;;;;;;3.75;2.35;;;;;;;18.15;63.27;100161.63;4338249;32;33485;-69
2022/05/18 00:27:59;;;;;;;4.47;2.37;;;;;;;18.13;62.66;100166.59;4362656;32;33998;-68
2022/05/18 00:30:28;;;;;;;3.28;2.35;;;;;;;17.93;63.14;100167.59;4373805;32;34208;-69
2022/05/18 00:32:56;;;;;;;2.95;1.98;;;;;;;18.54;58.84;100171.66;4362889;32;34161;-69
2022/05/18 00:35:25;;;;;;;2.90;2.25;;;;;;;18.23;59.67;100172.00;4362697;32;33509;-69
2022/05/18 00:37:53;;;;;;;3.50;2.30;;;;;;;18.03;59.75;100177.66;4370586;32;33642;-68
2022/05/18 00:40:21;;;;;;;3.08;2.17;;;;;;;17.96;60.02;100174.44;4361450;32;34375;-69
2022/05/18 00:42:48;;;;;;;2.83;2.28;;;;;;;18.46;58.39;100169.56;4361518;32;34070;-68
2022/05/18 00:45:16;;;;;;;2.70;2.12;;;;;;;18.33;57.94;100173.00;4361195;32;34166;-69
2022/05/18 00:47:45;;;;;;;3.20;2.10;;;;;;;17.85;59.53;100178.38;4361515;32;33944;-68
2022/05/18 00:50:15;;;;;;;2.80;2.10;;;;;;;18.18;58.53;100174.75;4369740;32;33997;-70
2022/05/18 00:52:52;;;;;;;2.05;1.80;;;;;;;18.33;58.09;100173.00;4376267;32;34169;-67
2022/05/18 00:55:22;;;;;;;5.85;2.08;;;;;;;18.32;57.67;100174.12;4375950;32;34246;-68
2022/05/18 00:58:07;;;;;;;2.15;1.70;;;;;;;18.20;56.50;100180.78;4355256;32;33963;-69
2022/05/18 01:00:35;;;;;;;2.35;1.95;;;;;;;17.84;56.64;100188.53;4347869;32;35051;-68
2022/05/18 01:03:18;;;;;;;1.92;1.58;;;;;;;17.96;55.50;100188.16;4358838;32;33886;-68
2022/05/18 01:05:49;;;;;;;2.67;1.80;;;;;;;17.78;55.79;100192.41;4376021;32;33505;-68
2022/05/18 01:08:22;;;;;;;2.65;2.00;;;;;;;18.23;54.70;100195.91;4376231;32;34796;-69
2022/05/18 01:10:50;;;;;;;2.80;1.90;;;;;;;18.20;54.74;100190.97;4362901;32;34125;-69
2022/05/18 01:13:17;;;;;;;2.22;1.75;;;;;;;18.15;53.67;100199.25;4374087;32;34425;-69
2022/05/18 01:15:45;;;;;;;4.10;2.08;;;;;;;17.75;54.29;100204.78;4347410;32;33528;-68
2022/05/18 01:18:13;;;;;;;3.17;2.08;;;;;;;18.03;53.57;100196.87;4347729;32;34655;-69
2022/05/18 01:20:42;;;;;;;2.70;1.80;;;;;;;18.17;52.91;100206.09;4347649;32;34822;-68
2022/05/18 01:23:38;;;;;;;3.33;2.00;;;;;;;17.86;53.61;100204.69;4347619;32;33938;-68
2022/05/18 01:26:19;;;;;;;2.03;1.80;;;;;;;18.02;53.38;100214.47;4352723;32;34288;-68
2022/05/18 01:28:56;;;;;;;2.58;1.55;;;;;;;18.11;53.75;100217.41;4361725;32;34975;-68
2022/05/18 01:31:57;;;;;;;2.12;1.75;;;;;;;18.17;53.16;100217.09;4362652;32;35060;-67
2022/05/18 01:34:28;;;;;;;2.90;1.92;;;;;;;18.22;52.15;100218.97;4362164;32;34679;-68
2022/05/18 01:36:56;;;;;;;2.22;1.77;;;;;;;18.05;53.64;100222.12;4362382;32;33546;-68
2022/05/18 01:39:36;;;;;;;2.30;1.62;;;;;;;18.01;53.05;100213.66;4362765;32;34029;-68
2022/05/18 01:42:34;;;;;;;2.62;1.77;;;;;;;18.19;52.24;100225.84;4362647;32;34927;-68
2022/05/18 01:45:03;;;;;;;2.50;1.87;;;;;;;18.20;53.39;100232.16;4362278;32;34561;-68
2022/05/18 01:47:33;;;;;;;4.20;1.85;;;;;;;18.42;53.39;100223.44;4362274;32;33773;-68
2022/05/18 01:50:02;;;;;;;2.60;1.75;;;;;;;18.47;53.15;100223.41;4356518;32;34590;-69
2022/05/18 01:52:32;;;;;;;3.15;1.87;;;;;;;18.42;53.90;100227.03;4362468;32;35124;-68
2022/05/18 01:55:00;;;;;;;3.53;1.80;;;;;;;18.35;53.88;100231.22;4377143;32;34612;-68
2022/05/18 01:57:28;;;;;;;2.55;1.80;;;;;;;18.27;54.17;100231.81;4377437;32;34566;-68
2022/05/18 01:59:55;;;;;;;3.85;1.70;;;;;;;18.31;54.61;100235.62;4377699;32;34693;-67
2022/05/18 02:02:24;;;;;;;2.20;1.98;;;;;;;18.32;54.60;100235.34;4354598;32;34029;-67
2022/05/18 02:04:52;;;;;;;4.45;2.08;;;;;;;18.11;55.09;100237.44;4362006;32;33894;-68
2022/05/18 02:07:19;;;;;;;4.57;2.00;;;;;;;18.19;54.59;100241.53;4362608;32;33322;-68
2022/05/18 02:09:47;;;;;;;2.12;1.80;;;;;;;17.89;55.30;100248.88;4362477;32;33525;-69
2022/05/18 02:12:15;;;;;;;2.90;1.70;;;;;;;17.84;55.82;100262.66;4362479;32;34894;-68
2022/05/18 02:14:42;;;;;;;2.80;2.00;;;;;;;17.89;55.84;100259.84;4373449;32;34089;-68
2022/05/18 02:17:09;;;;;;;2.40;1.92;;;;;;;17.80;56.36;100258.81;4363861;32;32693;-69
2022/05/18 02:19:37;;;;;;;3.00;2.00;;;;;;;17.48;57.00;100262.81;4377373;32;34095;-69
2022/05/18 02:22:05;;;;;;;2.15;1.95;;;;;;;17.61;56.38;100262.19;4364265;32;33640;-68
2022/05/18 02:24:32;;;;;;;4.20;2.12;;;;;;;17.09;57.56;100273.69;4376604;32;34075;-68
2022/05/18 02:27:00;;;;;;;3.60;2.28;;;;;;;17.40;56.46;100268.88;4364790;32;33542;-68
2022/05/18 02:29:27;;;;;;;3.15;2.10;;;;;;;16.70;58.13;100274.31;4362297;32;33590;-69
2022/05/18 02:31:55;;;;;;;2.87;2.22;;;;;;;16.78;57.74;100285.53;4362333;32;34047;-68
2022/05/18 02:34:23;;;;;;;2.90;2.20;;;;;;;16.85;57.84;100284.44;4361817;32;33740;-68
2022/05/18 02:36:50;;;;;;;3.17;2.08;;;;;;;16.97;57.43;100282.19;4362265;32;33524;-69
2022/05/18 02:39:20;;;;;;;3.12;1.98;;;;;;;16.99;57.29;100293.72;4360185;32;34733;-68
2022/05/18 02:41:49;;;;;;;5.43;2.30;;;;;;;16.83;57.94;100287.47;4377055;32;33967;-68
2022/05/18 02:44:17;;;;;;;2.95;2.20;;;;;;;16.92;57.82;100302.22;4363674;32;33697;-68
2022/05/18 02:46:44;;;;;;;2.67;2.00;;;;;;;16.74;58.25;100295.38;4376688;32;33383;-68
2022/05/18 02:49:12;;;;;;;3.03;2.10;;;;;;;16.50;59.36;100297.03;4363326;32;33263;-69
2022/05/18 02:51:40;;;;;;;2.72;2.20;;;;;;;16.95;58.07;100298.09;4362638;32;33878;-70
2022/05/18 02:57:01;;;;;;;2.72;2.00;;;;;;;16.58;59.26;100311.00;4362409;32;33464;-69
2022/05/18 02:59:29;;;;;;;3.65;2.33;;;;;;;16.55;59.25;100313.50;4348627;32;33621;-68
2022/05/18 03:01:56;;;;;;;2.90;1.83;;;;;;;16.32;60.06;100309.38;4365912;32;34210;-69
2022/05/18 03:04:25;;;;;;;4.07;2.50;;;;;;;16.36;60.42;100315.94;4376836;32;33688;-69
2022/05/18 03:06:53;;;;;;;2.78;2.20;;;;;;;16.23;60.66;100316.50;4377080;32;33894;-70
2022/05/18 03:09:20;;;;;;;3.22;2.25;;;;;;;15.99;61.64;100322.47;4376835;32;34558;-66
2022/05/18 03:11:50;;;;;;;3.67;2.62;;;;;;;16.15;61.31;100326.88;4374450;32;35155;-69
2022/05/18 03:14:17;;;;;;;3.40;2.50;;;;;;;16.23;60.77;100328.25;4362302;32;33698;-68
2022/05/18 03:16:45;;;;;;;4.07;2.78;;;;;;;15.70;62.72;100333.03;4362277;32;33241;-68
2022/05/18 03:19:13;;;;;;;3.37;2.47;;;;;;;15.88;62.25;100337.25;4348819;32;34853;-68
2022/05/18 03:24:28;;;;;;;2.95;2.30;;;;;;;15.82;62.23;100350.06;4368684;32;33821;-68
2022/05/18 03:26:56;;;;;;;4.47;2.72;;;;;;;15.69;62.81;100356.84;4363777;32;33347;-70
2022/05/18 03:29:24;;;;;;;4.50;2.90;;;;;;;15.77;62.74;100352.81;4363635;32;33435;-68
2022/05/18 03:31:51;;;;;;;3.28;2.50;;;;;;;15.69;63.09;100362.31;4376190;32;34223;-68
2022/05/18 03:34:19;;;;;;;3.87;2.58;;;;;;;15.92;63.16;100373.94;4377192;32;33993;-68
2022/05/18 03:36:46;;;;;;;4.37;2.40;;;;;;;16.32;61.76;100369.63;4355174;32;32521;-68
2022/05/18 03:39:15;;;;;;;6.35;2.80;;;;;;;16.67;60.73;100377.03;4362124;32;33965;-67
2022/05/18 03:41:43;;;;;;;4.53;3.10;;;;;;;17.05;59.35;100385.81;4362350;32;35076;-68
2022/05/18 03:44:10;;;;;;;2.72;2.37;;;;;;;17.21;58.95;100390.19;4361828;32;34151;-67
2022/05/18 03:46:39;;;;;;;5.12;2.92;;;;;;;17.99;55.82;100394.31;4362003;32;34228;-67
2022/05/18 03:49:07;;;;;;;3.35;2.35;;;;;;;18.42;53.80;100389.13;4371711;32;33738;-69
2022/05/18 03:51:34;;;;;;;2.97;2.35;;;;;;;18.00;55.89;100401.44;4363651;32;34207;-69
2022/05/18 03:54:02;;;;;;;3.45;2.08;;;;;;;18.63;53.70;100409.00;4376953;32;33515;-68
2022/05/18 03:56:30;;;;;;;4.15;2.35;;;;;;;19.16;51.93;100410.28;4363770;32;34326;-67
2022/05/18 03:58:59;;;;;;;3.30;2.30;;;;;;;19.74;50.38;100417.63;4376312;32;33945;-67
2022/05/18 04:01:26;;;;;;;3.12;2.25;;;;;;;19.87;50.09;100419.69;4364282;32;35196;-67
2022/05/18 04:03:54;;;;;;;3.55;2.35;;;;;;;20.40;48.27;100419.50;4362226;32;34725;-68
2022/05/18 04:06:22;;;;;;;3.72;2.12;;;;;;;20.44;47.49;100426.06;4348472;32;32599;-67
2022/05/18 04:08:49;;;;;;;5.75;2.53;;;;;;;20.77;47.18;100417.06;4362062;32;34426;-68
2022/05/18 04:11:17;;;;;;;3.60;2.50;;;;;;;21.55;45.46;100433.91;4361990;32;35136;-68
2022/05/18 04:13:45;;;;;;;2.40;1.75;;;;;;;22.05;43.98;100429.31;4374927;32;34350;-67
2022/05/18 04:16:12;;;;;;;4.80;2.08;;;;;;;21.68;45.36;100441.38;4376130;32;34147;-68
2022/05/18 04:18:40;;;;;;;3.85;1.98;;;;;;;22.49;42.71;100433.31;4377187;32;33704;-67
2022/05/18 04:21:08;;;;;;;2.12;1.83;;;;;;;20.33;48.12;100443.06;4377027;32;34148;-68
2022/05/18 04:23:40;;;;;;;6.20;2.37;;;;;;;22.11;43.88;100452.09;4363639;32;33506;-67
2022/05/18 04:26:09;;;;;;;2.78;2.10;;;;;;;22.98;41.81;100450.16;4349046;32;33355;-67
2022/05/18 04:28:36;;;;;;;4.05;2.15;;;;;;;23.48;40.27;100458.28;4348563;32;33936;-67
2022/05/18 04:31:04;;;;;;;3.72;2.12;;;;;;;24.16;39.28;100463.59;4361674;32;34159;-67
2022/05/18 04:33:33;;;;;;;2.45;1.80;;;;;;;23.48;41.84;100466.59;4364044;32;34079;-69
2022/05/18 04:36:02;;;;;;;3.03;2.30;;;;;;;24.42;38.56;100469.19;4370951;32;33138;-67
2022/05/18 04:38:32;;;;;;;3.40;1.90;;;;;;;24.92;37.58;100482.66;4371407;32;33410;-68
2022/05/18 04:41:00;;;;;;;3.42;2.10;;;;;;;24.13;39.29;100473.38;4358443;32;33963;-68
2022/05/18 04:43:29;;;;;;;2.25;2.05;;;;;;;24.40;39.72;100473.44;4367839;32;34685;-67
2022/05/18 04:45:57;;;;;;;2.70;2.12;;;;;;;24.49;39.83;100485.38;4348045;32;31920;-68
2022/05/18 04:48:30;;;;;;;3.60;2.50;;;;;;;24.80;37.40;100484.44;4373775;32;33662;-69
2022/05/18 04:50:58;;;;;;;5.62;2.30;;;;;;;24.42;39.45;100493.34;4350348;32;33765;-68
2022/05/18 04:53:26;;;;;;;4.70;2.35;;;;;;;23.31;39.66;100488.66;4359944;32;34570;-69
2022/05/18 04:55:54;;;;;;;3.85;2.03;;;;;;;23.75;40.93;100498.84;4363635;32;33188;-68
2022/05/18 04:58:22;;;;;;;4.05;2.10;;;;;;;23.45;41.52;100494.09;4362634;32;34147;-68
2022/05/18 05:00:57;;;;;;;3.80;2.20;;;;;;;23.51;38.53;100503.91;4358164;32;34215;-71
2022/05/18 05:03:24;;;;;;;;;;;;;;;23.24;39.88;100513.19;4349472;32;33476;-69
2022/05/18 05:05:58;;;;;;;3.33;2.40;;;;;;;22.94;40.51;100516.38;4363350;32;34249;-72
2022/05/18 05:08:26;;;;;;;3.37;2.22;;;;;;;23.06;40.04;100520.56;4370411;32;34082;-68
2022/05/18 05:10:53;;;;;;;2.12;1.75;;;;;;;22.35;42.41;100531.25;4359724;32;35135;-68
2022/05/18 05:13:21;;;;;;;3.12;1.90;;;;;;;21.57;39.01;100523.59;4365263;32;34641;-68
2022/05/18 05:15:51;;;;;;;2.60;1.85;;;;;;;20.38;41.41;100523.72;4362112;32;33553;-71
2022/05/18 05:18:19;;;;;;;2.67;1.83;;;;;;;18.74;45.28;100540.88;4363544;32;34532;-69
2022/05/18 05:20:46;;;;;;;2.67;1.60;;;;;;;17.76;47.10;100538.50;4371979;32;34295;-69
2022/05/18 05:23:14;;;;;;;2.70;1.90;;;;;;;17.34;48.72;100536.06;4370823;32;34194;-67
2022/05/18 05:25:41;;;;;;;2.72;1.70;;;;;;;17.17;49.44;100541.81;4372433;32;33382;-70
2022/05/18 05:28:09;;;;;;;4.32;2.00;;;;;;;16.87;50.09;100554.41;4360600;32;33810;-73
2022/05/18 05:30:36;;;;;;;3.22;1.90;;;;;;;16.70;50.01;100562.00;4361024;32;34211;-72
2022/05/18 05:33:04;;;;;;;2.10;1.60;;;;;;;16.88;48.94;100568.91;4349408;32;33999;-68
2022/05/18 05:35:32;;;;;;;2.53;1.50;;;;;;;17.04;47.96;100565.13;4370270;32;33456;-66
2022/05/18 05:37:59;;;;;;;2.65;1.40;;;;;;;16.48;47.71;100567.66;4372356;32;34088;-66
2022/05/18 05:40:27;;;;;;;3.12;1.80;;;;;;;16.07;50.04;100582.00;4376051;32;34194;-65
2022/05/18 05:42:55;;;;;;;3.17;1.70;;;;;;;16.54;47.67;100585.75;4374310;32;34231;-67
2022/05/18 05:45:22;;;;;;;1.98;1.70;;;;;;;15.87;49.60;100588.16;4367331;32;33146;-67
2022/05/18 05:47:51;;;;;;;2.15;1.65;;;;;;;15.81;50.43;100586.50;4349264;32;33127;-68
2022/05/18 05:50:20;;;;;;;3.67;1.87;;;;;;;16.33;50.46;100604.84;4370297;32;34380;-67
2022/05/18 05:52:47;;;;;;;3.15;2.08;;;;;;;16.97;49.12;100611.97;4390900;32;34103;-66
2022/05/18 05:55:15;;;;;;;6.25;2.10;;;;;;;16.84;50.84;100615.22;4390428;32;34168;-66
2022/05/18 05:57:42;;;;;;;3.50;1.75;;;;;;;16.58;47.71;100615.09;4390215;32;34153;-69
2022/05/18 06:00:10;;;;;;;2.28;1.52;;;;;;;17.11;45.40;100626.00;4377132;32;32597;-69
2022/05/18 06:02:38;;;;;;;4.28;1.60;;;;;;;17.09;45.70;100630.94;4373817;32;34555;-70
2022/05/18 06:05:06;;;;;;;2.45;1.48;;;;;;;17.76;43.15;100648.28;4375731;32;33900;-67
2022/05/18 06:07:34;;;;;;;3.87;2.10;;;;;;;17.65;43.26;100637.59;4373963;32;33758;-68
2022/05/18 06:10:02;;;;;;;2.95;1.60;;;;;;;17.79;42.94;100644.16;4375664;32;34847;-67
2022/05/18 06:12:30;;;;;;;1.98;1.50;;;;;;;17.69;43.81;100652.38;4373976;32;34045;-69
2022/05/18 06:14:59;;;;;;;2.60;1.55;;;;;;;17.64;43.23;100655.97;4367235;32;34206;-68
2022/05/18 06:17:26;;;;;;;4.65;1.60;;;;;;;17.35;44.34;100648.25;4383908;32;33962;-69
2022/05/18 06:19:54;;;;;;;2.45;1.60;;;;;;;17.41;44.29;100654.59;4350645;32;34872;-69
2022/05/18 06:22:21;;;;;;;3.10;1.60;;;;;;;17.18;44.47;100669.59;4349640;32;34744;-71
2022/05/18 06:24:51;;;;;;;3.72;1.70;;;;;;;16.92;44.75;100663.22;4365209;32;34308;-69
2022/05/18 06:27:20;;;;;;;2.58;1.60;;;;;;;17.31;46.14;100671.84;4377268;32;34828;-67
2022/05/18 06:29:50;;;;;;;2.42;1.60;;;;;;;17.53;42.89;100674.34;4372575;32;34268;-67
2022/05/18 06:32:18;;;;;;;2.30;1.42;;;;;;;17.75;41.10;100676.84;4350170;32;34687;-67
2022/05/18 06:34:45;;;;;;;1.33;1.23;;;;;;;17.99;39.58;100684.53;4365031;32;33582;-67
2022/05/18 06:37:13;;;;;;;2.72;1.50;;;;;;;18.30;40.01;100681.78;4368923;32;33720;-68
2022/05/18 06:39:41;;;;;;;2.92;1.52;;;;;;;18.58;38.89;100689.38;4364510;32;34219;-70
2022/05/18 06:42:08;;;;;;;3.55;1.30;;;;;;;18.63;39.53;100694.84;4359322;32;34674;-67
2022/05/18 06:44:40;;;;;;;2.15;1.30;;;;;;;18.85;39.08;100704.72;4373849;32;34019;-67
2022/05/18 06:47:09;;;;;;;1.77;1.33;;;;;;;19.46;37.68;100704.44;4367672;32;33452;-74
2022/05/18 06:49:37;;;;;;;2.55;1.70;;;;;;;19.98;36.73;100710.41;4361665;32;34196;-68
2022/05/18 06:52:06;;;;;;;2.12;1.40;;;;;;;20.20;35.55;100714.63;4351496;32;34748;-67
2022/05/18 06:54:35;;;;;;;3.10;1.27;;;;;;;20.73;36.04;100719.34;4376796;32;33491;-70
2022/05/18 06:57:19;;;;;;;2.40;1.50;;;;;;;20.55;34.87;100718.97;4374611;32;34564;-67
2022/05/18 06:59:47;;;;;;;2.58;1.40;;;;;;;21.72;32.68;100724.13;4375406;32;34603;-70
2022/05/18 07:02:14;;;;;;;3.10;1.60;;;;;;;21.20;33.34;100728.72;4377406;32;34511;-67
2022/05/18 07:04:42;;;;;;;3.92;1.83;;;;;;;21.76;33.91;100730.69;4372667;32;33444;-68
2022/05/18 07:07:18;;;;;;;3.28;1.62;;;;;;;21.83;32.76;100733.91;4377311;32;33991;-69
2022/05/18 07:09:45;;;;;;;2.80;1.50;;;;;;;21.95;31.50;100743.69;4376610;32;34914;-70
2022/05/18 07:12:13;;;;;;;2.00;1.40;;;;;;;20.08;33.89;100753.56;4376170;32;34597;-70
2022/05/18 07:14:41;;;;;;;2.35;1.35;;;;;;;19.47;36.39;100754.78;4375543;32;34267;-68
2022/05/18 07:17:08;;;;;;;2.40;1.70;;;;;;;19.40;36.93;100763.34;4376991;32;33924;-70
2022/05/18 07:19:36;;;;;;;2.55;1.55;;;;;;;19.03;38.29;100766.53;4377215;32;34263;-68
2022/05/18 07:22:05;;;;;;;2.58;1.50;;;;;;;18.85;39.48;100762.47;4377317;32;34045;-70
2022/05/18 07:24:32;;;;;;;2.00;1.60;;;;;;;19.56;38.00;100763.25;4377059;32;33609;-71
2022/05/18 07:27:00;;;;;;;2.97;1.50;;;;;;;20.10;35.76;100764.31;4377125;32;33665;-69
2022/05/18 07:29:28;;;;;;;3.72;1.58;;;;;;;19.93;36.15;100772.97;4361906;32;34069;-67
2022/05/18 07:32:13;;;;;;;2.87;1.67;;;;;;;19.55;35.66;100769.88;4361342;32;33901;-71
2022/05/18 07:34:42;;;;;;;1.90;1.70;;;;;;;19.06;38.70;100766.78;4360724;32;34159;-69
2022/05/18 07:37:11;;;;;;;2.72;1.67;;;;;;;19.61;37.39;100777.00;4361991;32;34047;-66
2022/05/18 07:39:39;;;;;;;2.87;1.58;;;;;;;19.45;36.15;100779.81;4361656;32;34161;-66
2022/05/18 07:42:07;;;;;;;2.30;1.50;;;;;;;18.92;37.45;100776.75;4348629;32;34086;-68
2022/05/18 07:44:35;;;;;;;1.87;1.48;;;;;;;18.67;38.48;100774.03;4348424;32;33539;-68
2022/05/18 07:47:05;;;;;;;2.42;1.40;;;;;;;19.56;36.64;100777.84;4361983;32;34749;-67
2022/05/18 07:49:35;;;;;;;2.42;2.05;;;;;;;19.37;36.02;100776.84;4361440;32;34163;-67
2022/05/18 07:52:03;;;;;;;2.03;1.30;;;;;;;19.49;38.28;100779.28;4348246;32;35338;-68
2022/05/18 07:54:30;;;;;;;3.47;1.80;;;;;;;19.72;36.59;100789.63;4361970;32;33473;-69
2022/05/18 07:56:58;;;;;;;1.87;1.52;;;;;;;19.52;35.93;100796.03;4361914;32;34433;-67
2022/05/18 07:59:25;;;;;;;4.40;1.55;;;;;;;19.05;34.83;100791.84;4361594;32;34322;-67
2022/05/18 08:01:53;;;;;;;3.17;1.33;;;;;;;19.51;36.08;100802.66;4361325;32;33930;-69
2022/05/18 08:04:21;;;;;;;2.33;1.50;;;;;;;19.24;35.14;100798.38;4361708;32;34405;-66
2022/05/18 08:06:48;;;;;;;2.47;1.73;;;;;;;19.49;35.05;100801.28;4361777;32;33869;-66
2022/05/18 08:09:22;;;;;;;2.20;1.30;;;;;;;19.55;36.83;100805.69;4361828;32;34429;-67
2022/05/18 08:17:25;;;;;;;2.08;1.40;;;;;;;18.78;37.29;100815.00;4362164;32;34010;-69
2022/05/18 08:19:52;;;;;;;1.95;1.42;;;;;;;18.53;37.60;100813.09;4361402;32;34397;-67
2022/05/18 08:22:20;;;;;;;4.30;1.50;;;;;;;18.39;36.69;100831.22;4361829;32;33522;-70
2022/05/18 08:24:48;;;;;;;2.72;1.27;;;;;;;18.49;36.79;100825.72;4360829;32;32888;-67
2022/05/18 08:27:16;;;;;;;2.30;1.42;;;;;;;18.43;36.85;100826.81;4361029;32;33756;-68
2022/05/18 08:29:44;;;;;;;3.97;1.50;;;;;;;18.18;38.10;100830.37;4361237;32;34241;-67
2022/05/18 08:32:11;;;;;;;1.90;1.48;;;;;;;18.01;39.65;100833.34;4361628;32;34369;-69
2022/05/18 08:34:39;;;;;;;2.62;1.70;;;;;;;17.97;39.29;100840.50;4360291;32;33253;-67
2022/05/18 08:37:06;;;;;;;1.85;1.48;;;;;;;17.56;40.13;100840.37;4377065;32;34120;-69
2022/05/18 08:39:34;;;;;;;3.17;1.70;;;;;;;17.62;40.82;100834.63;4377917;32;34252;-70
2022/05/18 08:42:02;;;;;;;5.10;1.77;;;;;;;18.31;39.04;100842.75;4377924;32;33824;-67
2022/05/18 08:44:32;;;;;;;3.53;1.90;;;;;;;18.18;41.22;100844.91;4363797;32;33659;-67
2022/05/18 08:47:17;;;;;;;2.97;1.60;;;;;;;18.56;37.44;100848.25;4363962;32;34789;-65
2022/05/18 08:49:58;;;;;;;4.07;1.30;;;;;;;18.25;40.05;100839.19;4364134;32;34935;-68
2022/05/18 08:52:44;;;;;;;3.22;1.40;;;;;;;18.04;37.63;100841.88;4368239;32;35087;-68
2022/05/18 08:55:18;;;;;;;2.08;1.40;;;;;;;17.91;39.37;100850.66;4362547;32;33445;-66
2022/05/18 08:57:48;;;;;;;1.90;1.45;;;;;;;18.16;38.14;100851.78;4349333;32;34351;-68
2022/05/18 09:00:22;;;;;;;1.95;1.40;;;;;;;18.74;37.76;100841.34;4365483;32;34889;-69
2022/05/18 09:03:12;;;;;;;1.98;1.50;;;;;;;18.56;39.04;100844.69;4361376;32;34032;-68
2022/05/18 09:06:15;;;;;;;3.83;1.60;;;;;;;18.58;38.92;100857.03;4377326;32;33258;-67
2022/05/18 09:10:12;;;;;;;1.50;1.33;;;;;;;19.20;35.87;100862.47;4365021;32;34057;-69
2022/05/18 09:11:37;;;;;;;1.98;1.37;;;;;;;19.22;35.15;100855.62;4362018;32;35143;-66
2022/05/18 09:14:07;;;;;;;2.33;1.30;;;;;;;19.18;36.29;100849.00;4362404;32;33706;-69
2022/05/18 09:17:09;;;;;;;2.47;1.58;;;;;;;18.93;37.84;100858.13;4349371;32;34397;-68
2022/05/18 09:19:52;;;;;;;1.58;1.30;;;;;;;18.54;36.37;100857.87;4362325;32;34457;-67
2022/05/18 09:22:37;;;;;;;2.78;1.40;;;;;;;18.76;36.90;100860.34;4362201;32;34062;-68
2022/05/18 09:25:33;;;;;;;1.75;1.25;;;;;;;18.88;35.90;100858.16;4349132;32;33950;-68
2022/05/18 09:28:36;;;;;;;2.30;1.45;;;;;;;19.01;35.75;100863.09;4362468;32;33276;-68
2022/05/18 09:31:31;;;;;;;2.30;1.58;;;;;;;18.70;37.70;100870.50;4381361;32;33791;-67
2022/05/18 09:34:20;;;;;;;2.03;1.20;;;;;;;19.33;35.36;100863.81;4392212;32;34280;-67
2022/05/18 09:37:16;;;;;;;2.55;1.15;;;;;;;18.87;35.12;100862.00;4383679;32;34139;-72
2022/05/18 09:39:51;;;;;;;1.92;1.10;;;;;;;18.88;34.42;100869.16;4377544;32;33522;-69
2022/05/18 09:42:23;;;;;;;1.92;1.10;;;;;;;18.45;34.62;100860.34;4363812;32;34768;-68
2022/05/18 09:44:59;;;;;;;2.30;1.05;;;;;;;18.82;32.22;100870.25;4376960;32;34173;-67
2022/05/18 09:47:32;;;;;;;1.90;1.33;;;;;;;18.61;32.96;100875.72;4376921;32;34642;-69
2022/05/18 09:50:04;;;;;;;1.33;1.05;;;;;;;18.54;34.15;100874.37;4376951;32;33319;-70
2022/05/18 09:52:34;;;;;;;2.42;1.20;;;;;;;19.66;32.47;100873.34;4363564;32;34584;-71
2022/05/18 09:55:03;;;;;;;1.70;1.20;;;;;;;19.45;32.13;100876.16;4363556;32;34304;-70
2022/05/18 09:57:33;;;;;;;1.92;1.35;;;;;;;19.18;31.71;100875.69;4364755;32;34055;-76
2022/05/18 10:00:08;;;;;;;1.90;1.12;;;;;;;19.63;29.16;100887.66;4379214;32;33450;-69
2022/05/18 10:08:24;;;;;;;4.70;1.15;;;;;;;19.53;30.24;100884.97;4367185;32;34876;-70
2022/05/18 10:10:58;;;;;;;2.45;1.50;;;;;;;19.38;32.08;100888.59;4378826;32;33571;-70
2022/05/18 10:13:31;;;;;;;2.83;1.23;;;;;;;19.79;30.14;100886.53;4365539;32;34007;-69
2022/05/18 10:16:18;;;;;;;2.37;1.30;;;;;;;19.40;33.28;100889.94;4366310;32;34304;-70
2022/05/18 10:18:50;;;;;;;2.87;1.30;;;;;;;19.38;31.58;100883.91;4365297;32;34741;-72
2022/05/18 10:21:48;;;;;;;1.48;1.20;;;;;;;20.16;31.95;100876.94;4378533;32;33572;-72
2022/05/18 10:24:39;;;;;;;1.33;1.10;;;;;;;19.73;30.59;100878.56;4378357;32;33865;-73
2022/05/18 10:27:27;;;;;;;1.20;1.10;;;;;;;19.70;31.01;100874.47;4365405;32;35120;-69
2022/05/18 10:30:31;;;;;;;3.10;1.33;;;;;;;20.26;28.99;100887.09;4378701;32;34054;-72
2022/05/18 10:33:07;;;;;;;2.12;1.40;;;;;;;20.13;29.31;100884.94;4378617;32;33274;-70
2022/05/18 10:35:37;;;;;;;1.40;1.10;;;;;;;20.10;28.67;100874.50;4365042;32;34829;-69
2022/05/18 10:38:26;;;;;;;1.27;1.10;;;;;;;20.75;27.02;100877.91;4378601;32;34219;-70
2022/05/18 10:41:02;;;;;;;1.70;0.90;;;;;;;19.67;28.83;100869.47;4365138;32;33816;-73
2022/05/18 10:43:38;;;;;;;2.62;1.33;;;;;;;19.97;27.71;100868.50;4378374;32;33638;-69
2022/05/18 10:46:19;;;;;;;1.05;0.93;;;;;;;20.49;27.74;100863.47;4378779;32;34839;-70
2022/05/18 10:48:58;;;;;;;2.58;1.02;;;;;;;19.75;26.15;100870.84;4365031;32;33968;-71
2022/05/18 10:51:38;;;;;;;1.20;1.10;;;;;;;19.39;26.84;100868.19;4378167;32;33859;-68
2022/05/18 10:54:22;;;;;;;1.73;1.02;;;;;;;19.45;26.25;100865.16;4378475;32;33275;-73
2022/05/18 10:56:50;;;;;;;1.17;1.08;;;;;;;19.52;27.07;100873.09;4378598;32;34774;-74
2022/05/18 10:59:33;;;;;;;1.90;1.30;;;;;;;20.17;25.69;100862.06;4365016;32;33970;-71
2022/05/18 11:02:12;;;;;;;1.95;1.30;;;;;;;19.63;28.28;100865.62;4374066;32;33335;-71
2022/05/18 11:04:51;;;;;;;1.40;1.10;;;;;;;19.67;25.80;100873.06;4350238;32;33522;-70
2022/05/18 11:07:21;;;;;;;2.87;1.12;;;;;;;20.08;26.01;100870.09;4349852;32;33878;-72
2022/05/18 11:09:49;;;;;;;1.90;1.30;;;;;;;20.14;26.18;100862.62;4349046;32;34705;-75
2022/05/18 11:12:55;;;;;;;3.60;1.75;;;;;;;19.65;26.11;100866.16;4349943;32;34050;-72
2022/05/18 11:15:37;;;;;;;4.25;1.30;;;;;;;19.98;28.14;100861.91;4350454;32;34234;-73
2022/05/18 11:18:34;;;;;;;1.00;0.88;;;;;;;20.46;27.04;100858.56;4363604;32;34071;-71
2022/05/18 11:21:12;;;;;;;2.45;1.08;;;;;;;20.44;23.14;100860.78;4363235;32;34921;-69
2022/05/18 11:23:48;;;;;;;1.87;1.00;;;;;;;20.45;22.69;100854.13;4363450;32;34001;-71
2022/05/18 11:26:57;;;;;;;1.00;0.90;;;;;;;20.65;20.75;100861.47;4363253;32;33496;-71
2022/05/18 11:29:49;;;;;;;1.50;0.80;;;;;;;20.59;22.13;100860.66;4349978;32;34790;-69
2022/05/18 11:32:20;;;;;;;1.52;0.90;;;;;;;20.58;21.46;100856.28;4363562;32;34003;-71
2022/05/18 11:35:14;;;;;;;3.05;1.15;;;;;;;20.62;20.35;100857.31;4363366;32;33971;-73
2022/05/18 11:37:57;;;;;;;1.62;1.10;;;;;;;20.14;21.06;100859.06;4363288;32;33461;-72
2022/05/18 11:40:54;;;;;;;1.85;0.93;;;;;;;19.82;22.91;100850.13;4363370;32;34616;-72
2022/05/18 11:43:35;;;;;;;1.48;1.10;;;;;;;20.24;22.39;100847.97;4361623;32;34037;-68
2022/05/18 11:46:21;;;;;;;0.95;0.82;;;;;;;20.24;23.01;100848.78;4363828;32;33814;-69
2022/05/18 11:49:17;;;;;;;1.45;1.00;;;;;;;20.25;23.00;100847.66;4372697;32;33914;-69
2022/05/18 11:52:08;;;;;;;2.25;1.23;;;;;;;19.86;22.50;100840.22;4361898;32;33951;-69
2022/05/18 11:54:57;;;;;;;1.30;0.90;;;;;;;20.38;21.53;100846.19;4348867;32;34368;-71
2022/05/18 11:57:47;;;;;;;1.23;0.95;;;;;;;20.32;22.11;100850.09;4361938;32;34140;-69
2022/05/18 12:00:18;;;;;;;2.17;1.23;;;;;;;20.18;22.64;100836.16;4348620;32;33326;-69
2022/05/18 12:03:27;;;;;;;1.62;0.90;;;;;;;20.15;22.93;100841.41;4362003;32;33788;-71
2022/05/18 12:06:19;;;;;;;1.02;0.93;;;;;;;20.08;22.80;100847.22;4361293;32;34630;-72